sensor_id;sensor_type;location;lat;lon;timestamp;P1;durP1;ratioP1;P2;durP2;ratioP2
65162;SDS011;51751;55.714;37.436;2022-10-13T00:01:06;7.22;;;4.20;;
65162;SDS011;51751;55.714;37.436;2022-10-13T00:03:34;8.18;;;4.15;;
65162;SDS011;51751;55.714;37.436;2022-10-13T00:06:18;9.90;;;4.80;;
65162;SDS011;51751;55.714;37.436;2022-10-13T00:08:46;8.90;;;3.97;;
65162;SDS011;51751;55.714;37.436;2022-10-13T00:13:39;11.85;;;4.30;;
65162;SDS011;51751;55.714;37.436;2022-10-13T00:16:06;7.20;;;4.05;;
65162;SDS011;51751;55.714;37.436;2022-10-13T00:18:39;7.28;;;3.88;;
65162;SDS011;51751;55.714;37.436;2022-10-13T00:21:07;7.32;;;3.80;;
65162;SDS011;51751;55.714;37.436;2022-10-13T00:23:34;7.30;;;3.90;;
65162;SDS011;51751;55.714;37.436;2022-10-13T00:26:01;8.88;;;4.40;;
65162;SDS011;51751;55.714;37.436;2022-10-13T00:28:34;7.72;;;4.10;;
65162;SDS011;51751;55.714;37.436;2022-10-13T00:31:00;8.73;;;4.10;;
65162;SDS011;51751;55.714;37.436;2022-10-13T00:33:27;9.13;;;4.07;;
65162;SDS011;51751;55.714;37.436;2022-10-13T00:35:53;10.40;;;3.88;;
65162;SDS011;51751;55.714;37.436;2022-10-13T00:38:20;8.13;;;3.80;;
65162;SDS011;51751;55.714;37.436;2022-10-13T00:40:49;8.45;;;4.05;;
65162;SDS011;51751;55.714;37.436;2022-10-13T00:43:17;6.97;;;4.10;;
65162;SDS011;51751;55.714;37.436;2022-10-13T00:45:47;7.82;;;4.05;;
65162;SDS011;51751;55.714;37.436;2022-10-13T00:48:28;11.38;;;4.20;;
65162;SDS011;51751;55.714;37.436;2022-10-13T00:51:00;7.25;;;4.25;;
65162;SDS011;51751;55.714;37.436;2022-10-13T00:53:27;7.60;;;4.18;;
65162;SDS011;51751;55.714;37.436;2022-10-13T00:55:56;9.70;;;4.20;;
65162;SDS011;51751;55.714;37.436;2022-10-13T00:58:22;6.07;;;4.00;;
65162;SDS011;51751;55.714;37.436;2022-10-13T01:03:38;7.35;;;3.78;;
65162;SDS011;51751;55.714;37.436;2022-10-13T01:06:22;10.43;;;4.30;;
65162;SDS011;51751;55.714;37.436;2022-10-13T01:08:51;11.13;;;4.30;;
65162;SDS011;51751;55.714;37.436;2022-10-13T01:22:02;7.13;;;4.15;;
65162;SDS011;51751;55.714;37.436;2022-10-13T01:29:31;10.77;;;4.03;;
65162;SDS011;51751;55.714;37.436;2022-10-13T01:37:47;8.90;;;4.60;;
65162;SDS011;51751;55.714;37.436;2022-10-13T01:40:33;8.57;;;4.20;;
65162;SDS011;51751;55.714;37.436;2022-10-13T01:43:04;12.00;;;4.30;;
65162;SDS011;51751;55.714;37.436;2022-10-13T01:45:37;8.13;;;3.72;;
65162;SDS011;51751;55.714;37.436;2022-10-13T01:48:27;6.90;;;3.80;;
65162;SDS011;51751;55.714;37.436;2022-10-13T01:50:54;7.93;;;3.58;;
65162;SDS011;51751;55.714;37.436;2022-10-13T01:53:22;6.95;;;3.30;;
65162;SDS011;51751;55.714;37.436;2022-10-13T01:55:53;6.90;;;4.10;;
65162;SDS011;51751;55.714;37.436;2022-10-13T01:58:26;7.13;;;4.18;;
65162;SDS011;51751;55.714;37.436;2022-10-13T02:03:25;13.35;;;3.90;;
65162;SDS011;51751;55.714;37.436;2022-10-13T02:11:31;6.85;;;3.60;;
65162;SDS011;51751;55.714;37.436;2022-10-13T02:13:58;8.77;;;3.30;;
65162;SDS011;51751;55.714;37.436;2022-10-13T02:16:59;7.93;;;3.55;;
65162;SDS011;51751;55.714;37.436;2022-10-13T02:19:27;7.65;;;3.60;;
65162;SDS011;51751;55.714;37.436;2022-10-13T02:21:55;6.30;;;3.65;;
65162;SDS011;51751;55.714;37.436;2022-10-13T02:24:24;5.93;;;3.60;;
65162;SDS011;51751;55.714;37.436;2022-10-13T02:26:53;6.18;;;3.63;;
65162;SDS011;51751;55.714;37.436;2022-10-13T02:29:19;6.80;;;3.85;;
65162;SDS011;51751;55.714;37.436;2022-10-13T02:31:45;9.88;;;4.00;;
65162;SDS011;51751;55.714;37.436;2022-10-13T02:34:14;7.45;;;3.45;;
65162;SDS011;51751;55.714;37.436;2022-10-13T02:36:59;6.80;;;3.85;;
65162;SDS011;51751;55.714;37.436;2022-10-13T02:39:26;7.88;;;3.40;;
65162;SDS011;51751;55.714;37.436;2022-10-13T02:41:56;4.63;;;3.20;;
65162;SDS011;51751;55.714;37.436;2022-10-13T02:44:30;7.07;;;3.50;;
65162;SDS011;51751;55.714;37.436;2022-10-13T02:46:59;7.25;;;3.45;;
65162;SDS011;51751;55.714;37.436;2022-10-13T02:49:25;5.65;;;3.40;;
65162;SDS011;51751;55.714;37.436;2022-10-13T02:51:51;8.18;;;3.67;;
65162;SDS011;51751;55.714;37.436;2022-10-13T02:54:18;5.95;;;3.47;;
65162;SDS011;51751;55.714;37.436;2022-10-13T02:56:46;5.43;;;3.13;;
65162;SDS011;51751;55.714;37.436;2022-10-13T02:59:12;6.07;;;3.20;;
65162;SDS011;51751;55.714;37.436;2022-10-13T03:01:38;8.88;;;3.30;;
65162;SDS011;51751;55.714;37.436;2022-10-13T03:04:07;5.43;;;3.15;;
65162;SDS011;51751;55.714;37.436;2022-10-13T03:06:33;6.72;;;3.35;;
65162;SDS011;51751;55.714;37.436;2022-10-13T03:08:59;13.10;;;3.80;;
65162;SDS011;51751;55.714;37.436;2022-10-13T03:11:25;9.02;;;3.83;;
65162;SDS011;51751;55.714;37.436;2022-10-13T03:13:54;11.57;;;3.15;;
65162;SDS011;51751;55.714;37.436;2022-10-13T03:16:20;6.25;;;3.40;;
65162;SDS011;51751;55.714;37.436;2022-10-13T03:18:46;6.97;;;3.35;;
65162;SDS011;51751;55.714;37.436;2022-10-13T03:21:15;6.15;;;3.40;;
65162;SDS011;51751;55.714;37.436;2022-10-13T03:23:41;6.45;;;3.55;;
65162;SDS011;51751;55.714;37.436;2022-10-13T03:26:13;6.63;;;3.47;;
65162;SDS011;51751;55.714;37.436;2022-10-13T03:28:40;8.98;;;3.47;;
65162;SDS011;51751;55.714;37.436;2022-10-13T03:31:07;5.40;;;3.17;;
65162;SDS011;51751;55.714;37.436;2022-10-13T03:33:33;7.65;;;3.40;;
65162;SDS011;51751;55.714;37.436;2022-10-13T03:36:15;6.18;;;3.72;;
65162;SDS011;51751;55.714;37.436;2022-10-13T03:38:43;9.40;;;3.53;;
65162;SDS011;51751;55.714;37.436;2022-10-13T03:41:11;5.38;;;3.13;;
65162;SDS011;51751;55.714;37.436;2022-10-13T03:43:42;8.18;;;3.53;;
65162;SDS011;51751;55.714;37.436;2022-10-13T03:46:12;8.70;;;3.20;;
65162;SDS011;51751;55.714;37.436;2022-10-13T03:48:42;9.80;;;4.00;;
65162;SDS011;51751;55.714;37.436;2022-10-13T03:51:12;7.10;;;3.30;;
65162;SDS011;51751;55.714;37.436;2022-10-13T03:53:44;6.25;;;3.55;;
65162;SDS011;51751;55.714;37.436;2022-10-13T03:56:19;9.27;;;3.33;;
65162;SDS011;51751;55.714;37.436;2022-10-13T03:58:50;9.15;;;4.63;;
65162;SDS011;51751;55.714;37.436;2022-10-13T04:01:20;8.45;;;4.38;;
65162;SDS011;51751;55.714;37.436;2022-10-13T04:03:48;7.45;;;4.18;;
65162;SDS011;51751;55.714;37.436;2022-10-13T04:06:14;9.93;;;4.72;;
65162;SDS011;51751;55.714;37.436;2022-10-13T04:08:41;9.82;;;5.00;;
65162;SDS011;51751;55.714;37.436;2022-10-13T04:11:07;13.15;;;4.20;;
65162;SDS011;51751;55.714;37.436;2022-10-13T04:13:39;8.88;;;4.25;;
65162;SDS011;51751;55.714;37.436;2022-10-13T04:16:07;12.43;;;4.20;;
65162;SDS011;51751;55.714;37.436;2022-10-13T04:18:34;8.57;;;3.75;;
65162;SDS011;51751;55.714;37.436;2022-10-13T04:21:06;8.98;;;3.70;;
65162;SDS011;51751;55.714;37.436;2022-10-13T04:23:35;7.47;;;3.55;;
65162;SDS011;51751;55.714;37.436;2022-10-13T04:26:02;7.68;;;3.60;;
65162;SDS011;51751;55.714;37.436;2022-10-13T04:28:28;8.43;;;3.20;;
65162;SDS011;51751;55.714;37.436;2022-10-13T04:30:54;9.15;;;3.30;;
65162;SDS011;51751;55.714;37.436;2022-10-13T04:33:20;4.18;;;3.15;;
65162;SDS011;51751;55.714;37.436;2022-10-13T04:35:46;5.45;;;2.92;;
65162;SDS011;51751;55.714;37.436;2022-10-13T04:38:11;7.78;;;3.10;;
65162;SDS011;51751;55.714;37.436;2022-10-13T04:40:37;7.70;;;3.60;;
65162;SDS011;51751;55.714;37.436;2022-10-13T04:43:03;9.00;;;3.45;;
65162;SDS011;51751;55.714;37.436;2022-10-13T04:45:30;7.50;;;3.35;;
65162;SDS011;51751;55.714;37.436;2022-10-13T04:47:56;6.75;;;3.25;;
65162;SDS011;51751;55.714;37.436;2022-10-13T04:50:22;6.57;;;2.78;;
65162;SDS011;51751;55.714;37.436;2022-10-13T04:52:57;6.53;;;3.20;;
65162;SDS011;51751;55.714;37.436;2022-10-13T04:55:24;6.97;;;3.30;;
65162;SDS011;51751;55.714;37.436;2022-10-13T04:57:50;7.95;;;3.38;;
65162;SDS011;51751;55.714;37.436;2022-10-13T05:00:16;8.95;;;3.35;;
65162;SDS011;51751;55.714;37.436;2022-10-13T05:02:41;6.97;;;3.03;;
65162;SDS011;51751;55.714;37.436;2022-10-13T05:05:11;9.55;;;2.80;;
65162;SDS011;51751;55.714;37.436;2022-10-13T05:07:36;8.23;;;2.95;;
65162;SDS011;51751;55.714;37.436;2022-10-13T05:10:03;4.93;;;2.95;;
65162;SDS011;51751;55.714;37.436;2022-10-13T05:12:32;6.97;;;2.95;;
65162;SDS011;51751;55.714;37.436;2022-10-13T05:15:00;4.72;;;3.22;;
65162;SDS011;51751;55.714;37.436;2022-10-13T05:17:28;6.35;;;3.40;;
65162;SDS011;51751;55.714;37.436;2022-10-13T05:19:55;8.18;;;3.60;;
65162;SDS011;51751;55.714;37.436;2022-10-13T05:22:21;7.43;;;3.25;;
65162;SDS011;51751;55.714;37.436;2022-10-13T05:24:48;6.25;;;3.38;;
65162;SDS011;51751;55.714;37.436;2022-10-13T05:27:17;8.02;;;3.53;;
65162;SDS011;51751;55.714;37.436;2022-10-13T05:29:42;12.90;;;3.50;;
65162;SDS011;51751;55.714;37.436;2022-10-13T05:32:14;9.65;;;3.63;;
65162;SDS011;51751;55.714;37.436;2022-10-13T05:34:43;6.70;;;3.22;;
65162;SDS011;51751;55.714;37.436;2022-10-13T05:37:12;10.90;;;3.67;;
65162;SDS011;51751;55.714;37.436;2022-10-13T05:39:38;7.13;;;3.30;;
65162;SDS011;51751;55.714;37.436;2022-10-13T05:42:07;11.18;;;3.50;;
65162;SDS011;51751;55.714;37.436;2022-10-13T05:44:33;8.77;;;3.63;;
65162;SDS011;51751;55.714;37.436;2022-10-13T05:47:05;7.07;;;3.65;;
65162;SDS011;51751;55.714;37.436;2022-10-13T05:49:33;8.95;;;3.47;;
65162;SDS011;51751;55.714;37.436;2022-10-13T05:52:10;5.75;;;3.38;;
65162;SDS011;51751;55.714;37.436;2022-10-13T05:54:46;7.28;;;3.45;;
65162;SDS011;51751;55.714;37.436;2022-10-13T05:57:17;9.88;;;3.90;;
65162;SDS011;51751;55.714;37.436;2022-10-13T05:59:48;7.47;;;3.85;;
65162;SDS011;51751;55.714;37.436;2022-10-13T06:02:17;7.00;;;3.35;;
65162;SDS011;51751;55.714;37.436;2022-10-13T06:04:46;11.30;;;4.00;;
65162;SDS011;51751;55.714;37.436;2022-10-13T06:07:21;8.10;;;3.50;;
65162;SDS011;51751;55.714;37.436;2022-10-13T06:09:47;9.23;;;4.20;;
65162;SDS011;51751;55.714;37.436;2022-10-13T06:12:14;9.10;;;3.70;;
65162;SDS011;51751;55.714;37.436;2022-10-13T06:14:40;9.43;;;3.85;;
65162;SDS011;51751;55.714;37.436;2022-10-13T06:17:09;7.78;;;3.50;;
65162;SDS011;51751;55.714;37.436;2022-10-13T06:19:38;8.23;;;3.50;;
65162;SDS011;51751;55.714;37.436;2022-10-13T06:22:12;10.95;;;3.70;;
65162;SDS011;51751;55.714;37.436;2022-10-13T06:24:39;4.63;;;3.10;;
65162;SDS011;51751;55.714;37.436;2022-10-13T06:27:07;6.63;;;3.35;;
65162;SDS011;51751;55.714;37.436;2022-10-13T06:29:53;8.27;;;3.42;;
65162;SDS011;51751;55.714;37.436;2022-10-13T06:32:22;7.07;;;3.33;;
65162;SDS011;51751;55.714;37.436;2022-10-13T06:34:49;7.90;;;3.53;;
65162;SDS011;51751;55.714;37.436;2022-10-13T06:37:14;9.65;;;3.20;;
65162;SDS011;51751;55.714;37.436;2022-10-13T06:39:40;6.05;;;3.17;;
65162;SDS011;51751;55.714;37.436;2022-10-13T06:42:09;5.07;;;3.03;;
65162;SDS011;51751;55.714;37.436;2022-10-13T06:44:41;7.22;;;3.72;;
65162;SDS011;51751;55.714;37.436;2022-10-13T06:47:10;10.23;;;3.70;;
65162;SDS011;51751;55.714;37.436;2022-10-13T06:49:36;9.52;;;3.22;;
65162;SDS011;51751;55.714;37.436;2022-10-13T06:52:05;9.00;;;3.85;;
65162;SDS011;51751;55.714;37.436;2022-10-13T06:54:31;6.72;;;3.47;;
65162;SDS011;51751;55.714;37.436;2022-10-13T06:57:00;4.07;;;3.00;;
65162;SDS011;51751;55.714;37.436;2022-10-13T06:59:26;8.45;;;3.53;;
65162;SDS011;51751;55.714;37.436;2022-10-13T07:01:52;7.60;;;3.42;;
65162;SDS011;51751;55.714;37.436;2022-10-13T07:04:30;5.80;;;3.42;;
65162;SDS011;51751;55.714;37.436;2022-10-13T07:06:58;7.57;;;3.28;;
65162;SDS011;51751;55.714;37.436;2022-10-13T07:09:24;16.58;;;3.58;;
65162;SDS011;51751;55.714;37.436;2022-10-13T07:11:50;8.32;;;3.38;;
65162;SDS011;51751;55.714;37.436;2022-10-13T07:14:20;8.05;;;3.40;;
65162;SDS011;51751;55.714;37.436;2022-10-13T07:16:47;6.72;;;3.50;;
65162;SDS011;51751;55.714;37.436;2022-10-13T07:19:16;7.90;;;3.25;;
65162;SDS011;51751;55.714;37.436;2022-10-13T07:21:45;7.97;;;3.78;;
65162;SDS011;51751;55.714;37.436;2022-10-13T07:24:10;7.07;;;4.55;;
65162;SDS011;51751;55.714;37.436;2022-10-13T07:26:36;9.50;;;4.50;;
65162;SDS011;51751;55.714;37.436;2022-10-13T07:29:05;9.02;;;4.07;;
65162;SDS011;51751;55.714;37.436;2022-10-13T07:31:35;6.28;;;4.00;;
65162;SDS011;51751;55.714;37.436;2022-10-13T07:34:04;9.50;;;4.53;;
65162;SDS011;51751;55.714;37.436;2022-10-13T07:36:31;8.38;;;4.53;;
65162;SDS011;51751;55.714;37.436;2022-10-13T07:39:06;6.20;;;3.93;;
65162;SDS011;51751;55.714;37.436;2022-10-13T07:41:34;8.07;;;4.32;;
65162;SDS011;51751;55.714;37.436;2022-10-13T07:44:00;8.90;;;3.63;;
65162;SDS011;51751;55.714;37.436;2022-10-13T07:46:29;8.20;;;4.10;;
65162;SDS011;51751;55.714;37.436;2022-10-13T07:48:58;9.25;;;4.32;;
65162;SDS011;51751;55.714;37.436;2022-10-13T07:51:24;7.47;;;4.10;;
65162;SDS011;51751;55.714;37.436;2022-10-13T07:53:50;5.95;;;4.00;;
65162;SDS011;51751;55.714;37.436;2022-10-13T07:56:16;9.77;;;4.10;;
65162;SDS011;51751;55.714;37.436;2022-10-13T07:58:45;7.72;;;4.20;;
65162;SDS011;51751;55.714;37.436;2022-10-13T08:01:12;7.30;;;4.40;;
65162;SDS011;51751;55.714;37.436;2022-10-13T08:03:39;11.07;;;4.53;;
65162;SDS011;51751;55.714;37.436;2022-10-13T08:06:05;8.60;;;3.92;;
65162;SDS011;51751;55.714;37.436;2022-10-13T08:08:31;7.28;;;3.65;;
65162;SDS011;51751;55.714;37.436;2022-10-13T08:11:01;6.55;;;3.65;;
65162;SDS011;51751;55.714;37.436;2022-10-13T08:13:30;9.40;;;4.15;;
65162;SDS011;51751;55.714;37.436;2022-10-13T08:16:12;6.70;;;3.70;;
65162;SDS011;51751;55.714;37.436;2022-10-13T08:18:38;6.80;;;3.55;;
65162;SDS011;51751;55.714;37.436;2022-10-13T08:21:14;5.75;;;3.88;;
65162;SDS011;51751;55.714;37.436;2022-10-13T08:23:47;6.40;;;3.85;;
65162;SDS011;51751;55.714;37.436;2022-10-13T08:26:25;5.88;;;3.75;;
65162;SDS011;51751;55.714;37.436;2022-10-13T08:29:11;7.90;;;3.70;;
65162;SDS011;51751;55.714;37.436;2022-10-13T08:31:38;6.80;;;3.83;;
65162;SDS011;51751;55.714;37.436;2022-10-13T08:34:08;11.80;;;3.95;;
65162;SDS011;51751;55.714;37.436;2022-10-13T08:36:38;10.70;;;3.70;;
65162;SDS011;51751;55.714;37.436;2022-10-13T08:39:11;5.03;;;3.55;;
65162;SDS011;51751;55.714;37.436;2022-10-13T08:41:39;5.13;;;3.10;;
65162;SDS011;51751;55.714;37.436;2022-10-13T08:55:22;6.55;;;3.67;;
65162;SDS011;51751;55.714;37.436;2022-10-13T08:57:49;8.98;;;4.18;;
65162;SDS011;51751;55.714;37.436;2022-10-13T09:00:16;6.93;;;3.58;;
65162;SDS011;51751;55.714;37.436;2022-10-13T09:02:52;6.00;;;3.45;;
65162;SDS011;51751;55.714;37.436;2022-10-13T09:05:26;8.07;;;3.35;;
65162;SDS011;51751;55.714;37.436;2022-10-13T09:08:05;7.63;;;3.45;;
65162;SDS011;51751;55.714;37.436;2022-10-13T09:10:55;5.38;;;3.70;;
65162;SDS011;51751;55.714;37.436;2022-10-13T09:13:33;10.25;;;3.33;;
65162;SDS011;51751;55.714;37.436;2022-10-13T09:16:08;6.13;;;3.10;;
65162;SDS011;51751;55.714;37.436;2022-10-13T09:18:36;8.43;;;3.72;;
65162;SDS011;51751;55.714;37.436;2022-10-13T09:21:09;6.88;;;3.40;;
65162;SDS011;51751;55.714;37.436;2022-10-13T09:23:48;7.15;;;3.70;;
65162;SDS011;51751;55.714;37.436;2022-10-13T09:26:21;6.10;;;3.78;;
65162;SDS011;51751;55.714;37.436;2022-10-13T09:28:49;7.07;;;4.07;;
65162;SDS011;51751;55.714;37.436;2022-10-13T09:31:21;5.80;;;3.22;;
65162;SDS011;51751;55.714;37.436;2022-10-13T09:34:12;6.18;;;3.40;;
65162;SDS011;51751;55.714;37.436;2022-10-13T09:36:53;9.27;;;3.30;;
65162;SDS011;51751;55.714;37.436;2022-10-13T09:39:39;5.65;;;3.47;;
65162;SDS011;51751;55.714;37.436;2022-10-13T09:42:22;8.38;;;2.70;;
65162;SDS011;51751;55.714;37.436;2022-10-13T09:45:01;7.68;;;2.85;;
65162;SDS011;51751;55.714;37.436;2022-10-13T09:47:39;7.53;;;2.70;;
65162;SDS011;51751;55.714;37.436;2022-10-13T09:50:18;4.55;;;2.72;;
65162;SDS011;51751;55.714;37.436;2022-10-13T09:53:08;3.40;;;2.50;;
65162;SDS011;51751;55.714;37.436;2022-10-13T09:58:38;4.22;;;2.72;;
65162;SDS011;51751;55.714;37.436;2022-10-13T10:01:15;11.10;;;3.25;;
65162;SDS011;51751;55.714;37.436;2022-10-13T10:06:46;6.00;;;3.00;;
65162;SDS011;51751;55.714;37.436;2022-10-13T10:09:32;4.65;;;3.03;;
65162;SDS011;51751;55.714;37.436;2022-10-13T10:12:00;4.03;;;2.78;;
65162;SDS011;51751;55.714;37.436;2022-10-13T10:20:54;7.03;;;3.22;;
65162;SDS011;51751;55.714;37.436;2022-10-13T10:26:22;4.32;;;2.78;;
65162;SDS011;51751;55.714;37.436;2022-10-13T10:31:48;5.03;;;2.70;;
65162;SDS011;51751;55.714;37.436;2022-10-13T10:39:35;9.40;;;3.22;;
65162;SDS011;51751;55.714;37.436;2022-10-13T10:44:50;9.45;;;3.50;;
65162;SDS011;51751;55.714;37.436;2022-10-13T10:47:22;10.45;;;2.83;;
65162;SDS011;51751;55.714;37.436;2022-10-13T10:49:59;3.97;;;2.70;;
65162;SDS011;51751;55.714;37.436;2022-10-13T10:52:41;9.52;;;2.92;;
65162;SDS011;51751;55.714;37.436;2022-10-13T10:55:42;9.40;;;2.92;;
65162;SDS011;51751;55.714;37.436;2022-10-13T11:01:09;4.78;;;2.63;;
65162;SDS011;51751;55.714;37.436;2022-10-13T11:08:46;6.22;;;2.80;;
65162;SDS011;51751;55.714;37.436;2022-10-13T11:14:00;7.60;;;3.13;;
65162;SDS011;51751;55.714;37.436;2022-10-13T11:19:49;11.43;;;4.05;;
65162;SDS011;51751;55.714;37.436;2022-10-13T11:22:16;10.52;;;2.83;;
65162;SDS011;51751;55.714;37.436;2022-10-13T11:24:44;4.45;;;2.70;;
65162;SDS011;51751;55.714;37.436;2022-10-13T11:30:40;16.00;;;2.50;;
65162;SDS011;51751;55.714;37.436;2022-10-13T11:38:53;4.95;;;2.35;;
65162;SDS011;51751;55.714;37.436;2022-10-13T11:56:59;4.65;;;2.20;;
65162;SDS011;51751;55.714;37.436;2022-10-13T11:59:44;5.28;;;2.13;;
65162;SDS011;51751;55.714;37.436;2022-10-13T12:02:12;3.40;;;2.10;;
65162;SDS011;51751;55.714;37.436;2022-10-13T12:04:41;3.17;;;2.15;;
65162;SDS011;51751;55.714;37.436;2022-10-13T12:07:23;3.03;;;2.28;;
65162;SDS011;51751;55.714;37.436;2022-10-13T12:09:53;3.63;;;2.03;;
65162;SDS011;51751;55.714;37.436;2022-10-13T12:12:23;3.05;;;2.33;;
65162;SDS011;51751;55.714;37.436;2022-10-13T12:14:50;4.88;;;2.13;;
65162;SDS011;51751;55.714;37.436;2022-10-13T12:19:51;4.80;;;2.15;;
65162;SDS011;51751;55.714;37.436;2022-10-13T12:22:46;5.35;;;2.30;;
65162;SDS011;51751;55.714;37.436;2022-10-13T12:25:34;4.85;;;2.00;;
65162;SDS011;51751;55.714;37.436;2022-10-13T12:28:04;3.42;;;2.00;;
65162;SDS011;51751;55.714;37.436;2022-10-13T12:30:34;3.95;;;1.90;;
65162;SDS011;51751;55.714;37.436;2022-10-13T12:33:19;4.95;;;2.28;;
65162;SDS011;51751;55.714;37.436;2022-10-13T12:35:49;4.18;;;2.20;;
65162;SDS011;51751;55.714;37.436;2022-10-13T12:38:22;10.35;;;2.70;;
65162;SDS011;51751;55.714;37.436;2022-10-13T12:40:49;4.50;;;2.00;;
65162;SDS011;51751;55.714;37.436;2022-10-13T12:43:17;2.88;;;2.10;;
65162;SDS011;51751;55.714;37.436;2022-10-13T12:45:49;5.95;;;2.25;;
65162;SDS011;51751;55.714;37.436;2022-10-13T12:48:35;5.25;;;2.70;;
65162;SDS011;51751;55.714;37.436;2022-10-13T12:51:19;4.35;;;2.10;;
65162;SDS011;51751;55.714;37.436;2022-10-13T12:53:51;7.83;;;2.20;;
65162;SDS011;51751;55.714;37.436;2022-10-13T12:56:18;4.57;;;2.03;;
65162;SDS011;51751;55.714;37.436;2022-10-13T12:59:02;5.63;;;2.33;;
65162;SDS011;51751;55.714;37.436;2022-10-13T13:01:29;6.03;;;2.00;;
65162;SDS011;51751;55.714;37.436;2022-10-13T13:03:59;4.20;;;2.05;;
65162;SDS011;51751;55.714;37.436;2022-10-13T13:10:02;6.35;;;2.22;;
65162;SDS011;51751;55.714;37.436;2022-10-13T13:12:44;7.22;;;2.10;;
65162;SDS011;51751;55.714;37.436;2022-10-13T13:20:54;7.78;;;2.05;;
65162;SDS011;51751;55.714;37.436;2022-10-13T13:23:20;5.10;;;2.10;;
65162;SDS011;51751;55.714;37.436;2022-10-13T13:25:59;5.35;;;2.05;;
65162;SDS011;51751;55.714;37.436;2022-10-13T13:28:32;5.93;;;2.10;;
65162;SDS011;51751;55.714;37.436;2022-10-13T13:31:07;5.05;;;2.42;;
65162;SDS011;51751;55.714;37.436;2022-10-13T13:33:34;8.25;;;2.25;;
65162;SDS011;51751;55.714;37.436;2022-10-13T13:36:16;3.50;;;2.00;;
65162;SDS011;51751;55.714;37.436;2022-10-13T13:38:45;7.93;;;2.20;;
65162;SDS011;51751;55.714;37.436;2022-10-13T13:41:12;6.05;;;1.92;;
65162;SDS011;51751;55.714;37.436;2022-10-13T13:43:38;5.85;;;1.98;;
65162;SDS011;51751;55.714;37.436;2022-10-13T13:46:05;6.50;;;2.20;;
65162;SDS011;51751;55.714;37.436;2022-10-13T13:48:32;5.70;;;1.73;;
65162;SDS011;51751;55.714;37.436;2022-10-13T13:51:08;2.85;;;1.73;;
65162;SDS011;51751;55.714;37.436;2022-10-13T13:53:34;8.05;;;1.90;;
65162;SDS011;51751;55.714;37.436;2022-10-13T13:56:00;15.30;;;2.17;;
65162;SDS011;51751;55.714;37.436;2022-10-13T13:58:28;3.03;;;1.70;;
65162;SDS011;51751;55.714;37.436;2022-10-13T14:00:58;4.95;;;1.70;;
65162;SDS011;51751;55.714;37.436;2022-10-13T14:03:24;4.80;;;2.00;;
65162;SDS011;51751;55.714;37.436;2022-10-13T14:05:50;5.25;;;1.90;;
65162;SDS011;51751;55.714;37.436;2022-10-13T14:08:17;14.15;;;2.45;;
65162;SDS011;51751;55.714;37.436;2022-10-13T14:10:43;8.02;;;2.17;;
65162;SDS011;51751;55.714;37.436;2022-10-13T14:13:16;14.25;;;2.05;;
65162;SDS011;51751;55.714;37.436;2022-10-13T14:15:42;5.65;;;2.00;;
65162;SDS011;51751;55.714;37.436;2022-10-13T14:18:09;3.95;;;2.03;;
65162;SDS011;51751;55.714;37.436;2022-10-13T14:20:40;6.65;;;2.50;;
65162;SDS011;51751;55.714;37.436;2022-10-13T14:23:06;8.07;;;2.40;;
65162;SDS011;51751;55.714;37.436;2022-10-13T14:25:36;6.38;;;3.72;;
65162;SDS011;51751;55.714;37.436;2022-10-13T14:28:02;13.35;;;3.00;;
65162;SDS011;51751;55.714;37.436;2022-10-13T14:30:31;21.25;;;2.58;;
65162;SDS011;51751;55.714;37.436;2022-10-13T14:32:57;11.45;;;2.72;;
65162;SDS011;51751;55.714;37.436;2022-10-13T14:35:30;11.00;;;2.70;;
65162;SDS011;51751;55.714;37.436;2022-10-13T14:37:59;14.10;;;2.60;;
65162;SDS011;51751;55.714;37.436;2022-10-13T14:40:25;10.57;;;3.08;;
65162;SDS011;51751;55.714;37.436;2022-10-13T14:42:52;12.00;;;3.72;;
65162;SDS011;51751;55.714;37.436;2022-10-13T14:45:25;11.02;;;3.20;;
65162;SDS011;51751;55.714;37.436;2022-10-13T14:47:51;8.32;;;3.60;;
65162;SDS011;51751;55.714;37.436;2022-10-13T14:50:19;14.57;;;3.88;;
65162;SDS011;51751;55.714;37.436;2022-10-13T14:52:50;11.43;;;2.70;;
65162;SDS011;51751;55.714;37.436;2022-10-13T14:55:16;6.97;;;3.08;;
65162;SDS011;51751;55.714;37.436;2022-10-13T14:57:43;9.18;;;2.83;;
65162;SDS011;51751;55.714;37.436;2022-10-13T15:00:10;6.57;;;2.97;;
65162;SDS011;51751;55.714;37.436;2022-10-13T15:02:39;9.23;;;3.42;;
65162;SDS011;51751;55.714;37.436;2022-10-13T15:05:05;12.50;;;2.85;;
65162;SDS011;51751;55.714;37.436;2022-10-13T15:07:32;12.35;;;4.32;;
65162;SDS011;51751;55.714;37.436;2022-10-13T15:10:25;5.30;;;2.45;;
65162;SDS011;51751;55.714;37.436;2022-10-13T15:12:56;12.48;;;3.50;;
65162;SDS011;51751;55.714;37.436;2022-10-13T15:15:22;11.45;;;3.10;;
65162;SDS011;51751;55.714;37.436;2022-10-13T15:17:48;11.70;;;3.55;;
65162;SDS011;51751;55.714;37.436;2022-10-13T15:20:14;5.75;;;2.70;;
65162;SDS011;51751;55.714;37.436;2022-10-13T15:25:52;11.68;;;4.95;;
65162;SDS011;51751;55.714;37.436;2022-10-13T15:28:27;12.07;;;3.10;;
65162;SDS011;51751;55.714;37.436;2022-10-13T15:30:57;8.27;;;2.88;;
65162;SDS011;51751;55.714;37.436;2022-10-13T15:33:27;11.63;;;2.90;;
65162;SDS011;51751;55.714;37.436;2022-10-13T15:35:53;13.60;;;3.20;;
65162;SDS011;51751;55.714;37.436;2022-10-13T15:38:22;6.70;;;2.65;;
65162;SDS011;51751;55.714;37.436;2022-10-13T15:40:48;12.90;;;3.15;;
65162;SDS011;51751;55.714;37.436;2022-10-13T15:46:12;6.22;;;2.90;;
65162;SDS011;51751;55.714;37.436;2022-10-13T15:51:37;7.07;;;2.97;;
65162;SDS011;51751;55.714;37.436;2022-10-13T15:54:09;10.18;;;3.20;;
65162;SDS011;51751;55.714;37.436;2022-10-13T15:56:34;8.80;;;3.35;;
65162;SDS011;51751;55.714;37.436;2022-10-13T15:59:02;5.10;;;2.90;;
65162;SDS011;51751;55.714;37.436;2022-10-13T16:01:32;7.88;;;3.20;;
65162;SDS011;51751;55.714;37.436;2022-10-13T16:03:58;5.82;;;2.97;;
65162;SDS011;51751;55.714;37.436;2022-10-13T16:06:24;6.35;;;3.00;;
65162;SDS011;51751;55.714;37.436;2022-10-13T16:08:51;6.22;;;2.88;;
65162;SDS011;51751;55.714;37.436;2022-10-13T16:11:20;5.63;;;2.67;;
65162;SDS011;51751;55.714;37.436;2022-10-13T16:16:45;6.65;;;3.00;;
65162;SDS011;51751;55.714;37.436;2022-10-13T16:19:11;5.78;;;2.97;;
65162;SDS011;51751;55.714;37.436;2022-10-13T16:21:40;7.53;;;2.95;;
65162;SDS011;51751;55.714;37.436;2022-10-13T16:24:06;6.13;;;3.20;;
65162;SDS011;51751;55.714;37.436;2022-10-13T16:26:33;8.52;;;2.90;;
65162;SDS011;51751;55.714;37.436;2022-10-13T16:29:04;5.65;;;2.72;;
65162;SDS011;51751;55.714;37.436;2022-10-13T16:31:50;6.20;;;3.30;;
65162;SDS011;51751;55.714;37.436;2022-10-13T16:34:16;11.52;;;2.92;;
65162;SDS011;51751;55.714;37.436;2022-10-13T16:36:42;6.43;;;3.17;;
65162;SDS011;51751;55.714;37.436;2022-10-13T16:39:19;8.32;;;3.70;;
65162;SDS011;51751;55.714;37.436;2022-10-13T16:41:45;8.80;;;3.70;;
65162;SDS011;51751;55.714;37.436;2022-10-13T16:44:20;9.00;;;4.75;;
65162;SDS011;51751;55.714;37.436;2022-10-13T16:46:49;6.35;;;3.88;;
65162;SDS011;51751;55.714;37.436;2022-10-13T16:49:19;8.45;;;3.40;;
65162;SDS011;51751;55.714;37.436;2022-10-13T16:51:45;7.38;;;3.40;;
65162;SDS011;51751;55.714;37.436;2022-10-13T16:54:11;9.85;;;3.30;;
65162;SDS011;51751;55.714;37.436;2022-10-13T16:56:47;6.60;;;3.20;;
65162;SDS011;51751;55.714;37.436;2022-10-13T16:59:15;7.18;;;3.60;;
65162;SDS011;51751;55.714;37.436;2022-10-13T17:01:41;13.48;;;3.50;;
65162;SDS011;51751;55.714;37.436;2022-10-13T17:04:14;13.23;;;5.22;;
65162;SDS011;51751;55.714;37.436;2022-10-13T17:06:46;7.93;;;3.40;;